Time;durP1;ratioP1;P1;durP2;ratioP2;P2;SDS_P1;SDS_P2;PMS_P1;PMS_P2;Temp;Humidity;BMP_temperature;BMP_pressure;BME280_temperature;BME280_humidity;BME280_pressure;Samples;Min_cycle;Max_cycle;Signal;HPM_P1;HPM_P2
2023/03/09 00:01:29;;;;;;;8.50;2.92;;;;;;;10.31;83.24;96386.88;5261013;27;20087;-84
2023/03/09 00:03:56;;;;;;;8.02;2.42;;;;;;;10.37;82.77;96379.56;5261103;27;20117;-84
2023/03/09 00:06:23;;;;;;;8.10;3.17;;;;;;;10.21;83.25;96378.09;5280277;27;20084;-84
2023/03/09 00:08:51;;;;;;;8.00;2.40;;;;;;;10.19;83.47;96338.72;5280358;27;20061;-84
2023/03/09 00:11:18;;;;;;;7.70;2.60;;;;;;;10.23;83.58;96373.72;5297183;27;20466;-84
2023/03/09 00:13:48;;;;;;;8.07;2.90;;;;;;;10.35;82.90;96375.44;5280422;27;20045;-83
2023/03/09 00:16:18;;;;;;;7.95;2.67;;;;;;;10.28;83.30;96377.59;5280293;27;20366;-84
2023/03/09 00:18:45;;;;;;;9.27;3.30;;;;;;;10.26;83.25;96378.66;5280179;27;20065;-83
2023/03/09 00:21:14;;;;;;;6.93;2.85;;;;;;;10.13;83.85;96384.59;5279871;27;20049;-84
2023/03/09 00:23:42;;;;;;;7.95;3.00;;;;;;;10.11;84.05;96383.88;5280437;27;20041;-84
2023/03/09 00:26:09;;;;;;;9.93;3.20;;;;;;;10.28;83.52;96384.50;5280312;27;20098;-84
2023/03/09 00:28:37;;;;;;;11.45;3.05;;;;;;;10.41;82.71;96381.00;5280218;27;20192;-83
2023/03/09 00:31:05;;;;;;;9.20;3.00;;;;;;;10.26;83.50;96399.25;5278956;27;20411;-83
2023/03/09 00:33:32;;;;;;;8.88;3.10;;;;;;;10.16;83.86;96401.59;5280360;27;20056;-84
2023/03/09 00:35:59;;;;;;;12.98;3.40;;;;;;;10.26;83.30;96397.50;5280611;27;20077;-83
2023/03/09 00:38:26;;;;;;;8.10;3.12;;;;;;;10.06;84.55;96393.66;5281024;27;20061;-83
2023/03/09 00:40:53;;;;;;;8.95;3.15;;;;;;;10.25;83.48;96401.03;5280383;27;20731;-83
2023/03/09 00:43:20;;;;;;;;;;;;;;;10.11;84.63;96406.25;5280760;27;20045;-83
2023/03/09 00:45:47;;;;;;;8.02;3.10;;;;;;;10.00;85.39;96406.16;5280451;27;19976;-83
2023/03/09 00:48:14;;;;;;;7.07;2.67;;;;;;;9.83;86.31;96402.09;5280264;27;20401;-83
2023/03/09 00:50:40;;;;;;;8.80;3.25;;;;;;;10.02;85.23;96399.97;5280838;27;20049;-83
2023/03/09 00:53:08;;;;;;;10.32;2.85;;;;;;;9.75;86.68;96396.63;5280428;27;20087;-83
2023/03/09 00:55:34;;;;;;;7.00;2.58;;;;;;;9.61;88.00;96394.13;5280435;27;20058;-84
2023/03/09 00:58:01;;;;;;;9.25;3.05;;;;;;;9.62;88.12;96396.59;5280260;27;20428;-83
2023/03/09 01:00:29;;;;;;;8.93;2.83;;;;;;;9.63;88.45;96392.28;5280345;27;20099;-84
2023/03/09 01:02:56;;;;;;;7.35;3.00;;;;;;;9.68;88.11;96374.78;5280279;27;20042;-83
2023/03/09 01:05:23;;;;;;;7.37;3.03;;;;;;;9.92;86.57;96380.87;5280338;27;20073;-83
2023/03/09 01:07:50;;;;;;;6.62;2.53;;;;;;;9.77;87.16;96369.00;5280188;27;20062;-83
2023/03/09 01:10:17;;;;;;;7.15;2.75;;;;;;;9.75;87.35;96363.13;5280476;27;20049;-84
2023/03/09 01:12:44;;;;;;;9.23;3.47;;;;;;;9.85;86.78;96351.28;5280101;27;20092;-83
2023/03/09 01:15:12;;;;;;;9.07;3.03;;;;;;;9.91;86.43;96353.47;5280821;27;20068;-83
2023/03/09 01:17:40;;;;;;;9.55;3.22;;;;;;;9.99;85.88;96363.25;5280382;27;20054;-83
2023/03/09 01:20:07;;;;;;;8.82;3.22;;;;;;;9.88;86.47;96343.34;5280582;27;20104;-84
2023/03/09 01:22:34;;;;;;;10.73;3.37;;;;;;;9.75;87.37;96332.22;5280182;27;20060;-83
2023/03/09 01:25:04;;;;;;;7.82;3.33;;;;;;;9.74;87.76;96328.81;5280347;27;20424;-84
2023/03/09 01:27:31;;;;;;;9.18;3.00;;;;;;;9.61;88.86;96322.03;5280176;27;20061;-84
2023/03/09 01:29:59;;;;;;;8.90;3.10;;;;;;;9.79;87.78;96320.81;5280306;27;20049;-84
2023/03/09 01:32:26;;;;;;;7.60;2.95;;;;;;;9.65;88.52;96316.56;5280335;27;20053;-83
2023/03/09 01:34:53;;;;;;;9.57;3.00;;;;;;;9.50;89.22;96315.84;5280290;27;20062;-83
2023/03/09 01:37:20;;;;;;;8.70;2.97;;;;;;;9.68;88.46;96313.81;5280268;27;20127;-84
2023/03/09 01:39:47;;;;;;;10.75;3.37;;;;;;;9.71;88.11;96308.44;5280332;27;20333;-84
2023/03/09 01:42:16;;;;;;;9.23;3.10;;;;;;;9.55;88.75;96308.62;5280388;27;20045;-83
2023/03/09 01:44:43;;;;;;;10.70;3.22;;;;;;;9.36;89.56;96303.06;5280582;27;20409;-83
2023/03/09 01:47:10;;;;;;;9.98;3.53;;;;;;;9.34;89.67;96299.72;5280173;27;20072;-83
2023/03/09 01:49:43;;;;;;;9.77;3.75;;;;;;;9.33;89.54;96281.81;5280143;27;20459;-83
2023/03/09 01:52:24;;;;;;;10.82;3.53;;;;;;;9.01;91.53;96268.47;5278960;27;20060;-83
2023/03/09 01:54:58;;;;;;;9.55;3.40;;;;;;;9.14;91.17;96274.47;5280014;27;20058;-83
2023/03/09 01:57:42;;;;;;;7.97;3.22;;;;;;;8.95;91.95;96280.81;5260608;27;20124;-83
2023/03/09 02:00:20;;;;;;;10.70;3.83;;;;;;;9.21;90.77;96304.84;5278715;27;20104;-83
2023/03/09 02:02:56;;;;;;;12.18;3.72;;;;;;;9.15;91.32;96313.00;5280121;27;20132;-83
2023/03/09 02:05:34;;;;;;;10.50;4.00;;;;;;;9.22;91.21;96285.09;5260794;27;20112;-83
2023/03/09 02:08:01;;;;;;;8.57;3.47;;;;;;;9.39;90.21;96286.56;5278616;27;20462;-83
2023/03/09 02:10:37;;;;;;;10.40;3.85;;;;;;;9.44;89.80;96294.81;5278640;27;20054;-84
2023/03/09 02:13:10;;;;;;;10.95;3.97;;;;;;;9.28;90.94;96313.84;5279834;27;20049;-83
2023/03/09 02:15:37;;;;;;;9.80;3.42;;;;;;;9.20;91.50;96310.09;5288199;27;233138;-83
2023/03/09 02:18:05;;;;;;;9.23;3.62;;;;;;;9.03;92.97;96290.59;5279969;27;20053;-84
2023/03/09 02:20:59;;;;;;;8.90;3.40;;;;;;;9.09;92.83;96291.97;5279699;27;20121;-83
2023/03/09 02:23:52;;;;;;;9.35;3.22;;;;;;;9.00;93.32;96275.38;5280074;27;20045;-83
2023/03/09 02:26:34;;;;;;;13.93;4.47;;;;;;;8.95;93.64;96280.81;5261601;27;20061;-84
2023/03/09 02:29:01;;;;;;;11.05;3.20;;;;;;;9.08;92.76;96280.84;5280765;27;20061;-83
2023/03/09 02:31:28;;;;;;;10.00;3.62;;;;;;;8.87;93.64;96275.34;5280790;27;20328;-83
2023/03/09 02:33:55;;;;;;;9.77;3.22;;;;;;;8.80;94.20;96270.69;5280662;27;20111;-83
2023/03/09 02:36:23;;;;;;;12.23;3.50;;;;;;;8.73;94.62;96277.97;5280744;27;20061;-83
2023/03/09 02:38:50;;;;;;;10.43;3.45;;;;;;;8.88;93.38;96283.88;5280463;27;20119;-83
2023/03/09 02:41:17;;;;;;;10.27;3.92;;;;;;;8.78;94.00;96293.94;5279458;27;20368;-83
2023/03/09 02:43:50;;;;;;;10.52;3.80;;;;;;;8.83;93.95;96306.50;5261424;27;20111;-84
2023/03/09 02:46:17;;;;;;;11.48;4.18;;;;;;;8.75;94.47;96290.72;5261355;27;20076;-83
2023/03/09 02:48:44;;;;;;;10.20;4.05;;;;;;;8.74;94.80;96289.91;5280386;27;20412;-83
2023/03/09 02:51:11;;;;;;;7.95;2.90;;;;;;;8.83;93.60;96285.94;5280848;27;20053;-84
2023/03/09 02:53:38;;;;;;;7.93;3.25;;;;;;;8.76;93.94;96276.94;5280681;27;20049;-83
2023/03/09 02:56:05;;;;;;;10.35;3.17;;;;;;;8.95;93.09;96285.16;5280733;27;20467;-83
2023/03/09 02:58:32;;;;;;;9.85;3.78;;;;;;;9.16;91.52;96280.38;5280796;27;20352;-83
2023/03/09 03:00:59;;;;;;;8.55;2.90;;;;;;;9.24;91.29;96296.09;5280977;27;20050;-84
2023/03/09 03:03:27;;;;;;;11.02;3.28;;;;;;;9.14;92.13;96287.34;5280925;27;20051;-83
2023/03/09 03:05:54;;;;;;;9.07;3.33;;;;;;;9.22;91.88;96296.22;5281108;27;20073;-84
2023/03/09 03:08:21;;;;;;;;;;;;;;;9.43;90.63;96301.72;5280827;27;20076;-83
2023/03/09 03:11:03;;;;;;;11.52;3.45;;;;;;;9.53;89.64;96309.66;5280771;27;19964;-84
2023/03/09 03:13:30;;;;;;;14.50;4.55;;;;;;;9.50;89.81;96313.25;5261641;27;20046;-84
2023/03/09 03:15:59;;;;;;;12.73;3.87;;;;;;;9.48;90.40;96309.16;5280744;27;20103;-84
2023/03/09 03:18:25;;;;;;;8.80;3.12;;;;;;;9.57;89.84;96306.78;5280409;27;20131;-83
2023/03/09 03:20:52;;;;;;;10.57;3.40;;;;;;;9.34;90.93;96309.19;5280920;27;20066;-83
2023/03/09 03:23:19;;;;;;;11.68;3.80;;;;;;;9.42;90.92;96304.37;5171709;27;20117;-83
2023/03/09 03:25:47;;;;;;;10.65;3.20;;;;;;;9.52;90.33;96306.25;5171694;27;20126;-84
2023/03/09 03:28:14;;;;;;;11.00;3.60;;;;;;;9.51;90.67;96309.75;5171375;27;20059;-84
2023/03/09 03:30:41;;;;;;;12.55;3.40;;;;;;;9.64;90.01;96314.09;5171937;27;20051;-84
2023/03/09 03:33:08;;;;;;;11.07;3.33;;;;;;;9.72;89.57;96315.22;5260356;27;20099;-84
2023/03/09 03:35:34;;;;;;;11.10;3.55;;;;;;;9.82;89.13;96311.13;5171424;27;20059;-84
2023/03/09 03:38:02;;;;;;;9.43;3.00;;;;;;;9.87;88.48;96321.09;5171665;27;20425;-83
2023/03/09 03:40:28;;;;;;;11.85;3.42;;;;;;;9.74;89.03;96299.69;5242787;27;20055;-84
2023/03/09 03:42:56;;;;;;;8.57;2.95;;;;;;;9.86;88.72;96301.41;5242439;27;20055;-84
2023/03/09 03:45:23;;;;;;;9.27;3.10;;;;;;;9.89;88.55;96301.25;5278872;27;20073;-84
2023/03/09 03:47:49;;;;;;;10.18;3.37;;;;;;;9.86;89.06;96304.81;5171928;27;20406;-84
2023/03/09 03:50:16;;;;;;;9.55;3.05;;;;;;;9.99;88.65;96301.41;5172618;27;20051;-84
2023/03/09 03:52:43;;;;;;;8.63;2.97;;;;;;;10.24;86.97;96305.75;5172734;27;20417;-83
2023/03/09 03:55:11;;;;;;;9.05;3.10;;;;;;;10.28;86.63;96294.28;5172460;27;20063;-84
2023/03/09 03:57:38;;;;;;;10.27;3.55;;;;;;;10.42;85.70;96289.84;5260697;27;20062;-84
2023/03/09 04:00:11;;;;;;;;;;;;;;;10.55;85.26;96283.81;5172434;27;20101;-84
2023/03/09 04:02:39;;;;;;;12.13;3.22;;;;;;;10.76;83.46;96284.88;5172519;27;19958;-84
2023/03/09 04:05:06;;;;;;;12.68;3.08;;;;;;;10.68;84.02;96287.19;5172488;27;20119;-84
2023/03/09 04:07:33;;;;;;;9.30;2.95;;;;;;;10.75;83.49;96279.84;5172005;27;20066;-84
2023/03/09 04:10:01;;;;;;;9.60;3.15;;;;;;;10.70;83.67;96283.53;5243407;27;20060;-84
2023/03/09 04:12:28;;;;;;;10.98;3.20;;;;;;;10.58;84.74;96289.56;5225076;27;20069;-84
2023/03/09 04:14:55;;;;;;;8.10;3.30;;;;;;;10.72;83.95;96286.84;5260300;27;20078;-83
2023/03/09 04:17:25;;;;;;;9.27;2.75;;;;;;;10.79;83.55;96296.72;5171726;27;20112;-84
2023/03/09 04:19:52;;;;;;;8.50;3.00;;;;;;;10.49;85.00;96282.47;5278728;27;20059;-84
2023/03/09 04:22:20;;;;;;;7.18;2.58;;;;;;;10.53;84.68;96285.69;5258503;27;20050;-84
2023/03/09 04:24:50;;;;;;;10.05;3.00;;;;;;;10.46;85.43;96282.72;5243091;27;20477;-84
2023/03/09 04:27:17;;;;;;;8.20;2.95;;;;;;;10.44;85.44;96279.41;5170228;27;20096;-84
2023/03/09 04:29:44;;;;;;;12.23;2.90;;;;;;;10.31;86.05;96273.44;5200513;27;20089;-84
2023/03/09 04:32:11;;;;;;;11.25;2.75;;;;;;;10.39;86.06;96269.41;5224509;27;20122;-84
2023/03/09 04:34:38;;;;;;;8.30;3.10;;;;;;;10.38;86.04;96272.94;5242673;27;20095;-84
2023/03/09 04:37:05;;;;;;;9.75;3.10;;;;;;;10.19;87.32;96277.69;5242200;27;20105;-84
2023/03/09 04:39:32;;;;;;;9.32;2.67;;;;;;;10.15;87.50;96278.81;5242480;27;20414;-84
2023/03/09 04:41:59;;;;;;;9.07;3.10;;;;;;;10.23;87.04;96278.34;5224713;27;20057;-84
2023/03/09 04:44:26;;;;;;;8.93;3.05;;;;;;;10.33;86.59;96275.00;5242390;27;20123;-84
2023/03/09 04:46:53;;;;;;;8.43;2.75;;;;;;;10.56;85.27;96280.31;5242049;27;20074;-84
2023/03/09 04:49:20;;;;;;;9.25;2.92;;;;;;;10.60;84.48;96276.56;5260094;27;20059;-84
2023/03/09 04:51:47;;;;;;;7.15;2.75;;;;;;;10.36;86.05;96268.81;5171772;27;20047;-84
2023/03/09 04:54:14;;;;;;;7.90;3.12;;;;;;;10.55;84.79;96271.75;5242442;27;20390;-84
2023/03/09 04:56:41;;;;;;;9.52;3.03;;;;;;;10.51;84.91;96260.00;5242343;27;20071;-84
2023/03/09 04:59:08;;;;;;;10.50;3.47;;;;;;;10.44;85.26;96258.78;5170986;27;20078;-83
2023/03/09 05:01:35;;;;;;;8.77;2.70;;;;;;;10.37;85.40;96240.34;5242170;27;20055;-84
2023/03/09 05:04:02;;;;;;;10.35;2.97;;;;;;;10.33;86.30;96231.19;5224108;27;20067;-84
2023/03/09 05:06:31;;;;;;;10.30;2.70;;;;;;;10.21;87.33;96223.44;5257724;27;20062;-84
2023/03/09 05:08:59;;;;;;;10.18;3.03;;;;;;;10.18;87.82;96228.81;5259240;27;20353;-84
2023/03/09 05:11:26;;;;;;;8.13;3.17;;;;;;;10.22;87.95;96236.28;5241589;27;20415;-84
2023/03/09 05:13:53;;;;;;;8.40;2.90;;;;;;;10.21;88.18;96234.59;5242265;27;20103;-84
2023/03/09 05:16:20;;;;;;;8.75;3.00;;;;;;;10.32;87.67;96247.59;5241989;27;20070;-84
2023/03/09 05:18:51;;;;;;;6.85;2.65;;;;;;;10.20;88.13;96243.25;5152910;27;20406;-84
2023/03/09 05:21:18;;;;;;;8.98;2.83;;;;;;;10.39;87.20;96260.84;5277811;27;20049;-84
2023/03/09 05:23:45;;;;;;;7.62;2.70;;;;;;;10.39;87.45;96250.53;5243093;27;20117;-84
2023/03/09 05:26:12;;;;;;;7.90;2.70;;;;;;;10.54;86.69;96253.81;5261037;27;20077;-84
2023/03/09 05:28:40;;;;;;;8.75;2.60;;;;;;;10.34;87.67;96261.19;5260590;27;20467;-84
2023/03/09 05:31:09;;;;;;;9.63;2.72;;;;;;;10.07;89.41;96260.50;5278774;27;20046;-84
2023/03/09 05:33:36;;;;;;;6.85;2.70;;;;;;;9.97;90.46;96277.50;5280215;27;20058;-84
2023/03/09 05:36:18;;;;;;;13.50;2.90;;;;;;;10.08;90.09;96267.28;5278626;27;20057;-84
2023/03/09 05:38:45;;;;;;;12.27;2.75;;;;;;;10.20;89.27;96269.00;5260687;27;20061;-83
2023/03/09 05:41:12;;;;;;;9.15;2.80;;;;;;;10.01;90.49;96266.91;5278746;27;20100;-84
2023/03/09 05:43:41;;;;;;;7.45;3.08;;;;;;;10.08;90.45;96268.09;5278862;27;20069;-84
2023/03/09 05:46:12;;;;;;;8.30;2.83;;;;;;;10.24;89.77;96264.53;5243682;27;20073;-84
2023/03/09 05:48:40;;;;;;;9.18;3.00;;;;;;;10.26;89.63;96272.97;5260685;27;20420;-84
2023/03/09 05:51:10;;;;;;;6.60;3.03;;;;;;;10.12;90.52;96263.59;5260838;27;20381;-84
2023/03/09 05:53:37;;;;;;;8.25;2.67;;;;;;;10.23;90.42;96268.84;5279392;27;20065;-84
2023/03/09 05:56:06;;;;;;;6.47;2.35;;;;;;;10.31;89.82;96270.88;5261067;27;20144;-84
2023/03/09 05:58:36;;;;;;;5.68;2.55;;;;;;;10.27;90.36;96270.28;5278109;27;20062;-84
2023/03/09 06:01:04;;;;;;;5.72;2.35;;;;;;;10.25;90.04;96261.84;5260793;27;20057;-84
2023/03/09 06:03:31;;;;;;;9.68;2.75;;;;;;;10.17;91.27;96253.78;5260776;27;20119;-84
2023/03/09 06:06:03;;;;;;;7.45;2.55;;;;;;;10.33;90.66;96254.41;5260340;27;20053;-84
2023/03/09 06:08:30;;;;;;;7.75;2.37;;;;;;;10.39;90.22;96263.44;5260454;27;20108;-84
2023/03/09 06:10:59;;;;;;;7.47;3.10;;;;;;;10.42;90.19;96266.63;5296637;27;20045;-84
2023/03/09 06:13:26;;;;;;;6.12;2.17;;;;;;;10.48;90.03;96267.13;5278120;27;20069;-84
2023/03/09 06:15:54;;;;;;;7.10;2.33;;;;;;;10.67;89.31;96277.78;5261138;27;20062;-85
2023/03/09 06:18:21;;;;;;;7.62;2.47;;;;;;;10.66;89.20;96273.56;5296577;27;20442;-84
2023/03/09 06:20:49;;;;;;;9.35;2.58;;;;;;;10.60;89.81;96267.06;5279917;27;20046;-84
2023/03/09 06:23:16;;;;;;;5.68;2.00;;;;;;;10.70;89.66;96255.19;5279910;27;20105;-83
2023/03/09 06:25:43;;;;;;;6.62;2.05;;;;;;;10.60;90.49;96222.41;5279445;27;20065;-83
2023/03/09 06:28:10;;;;;;;5.20;2.00;;;;;;;10.56;90.74;96221.81;5279323;27;20118;-83
2023/03/09 06:30:40;;;;;;;5.07;1.73;;;;;;;10.68;89.99;96228.69;5279792;27;20084;-83
2023/03/09 06:33:07;;;;;;;4.90;1.98;;;;;;;10.85;88.88;96231.81;5279305;27;20408;-83
2023/03/09 06:35:35;;;;;;;5.82;2.00;;;;;;;10.88;88.50;96222.06;5279745;27;20057;-83
2023/03/09 06:38:03;;;;;;;8.02;2.85;;;;;;;10.98;88.07;96228.22;5279609;27;20049;-83
2023/03/09 06:40:30;;;;;;;5.75;2.05;;;;;;;11.08;87.74;96227.53;5279348;27;20076;-83
2023/03/09 06:42:57;;;;;;;6.28;2.00;;;;;;;11.39;86.10;96236.44;5279659;27;20062;-83
2023/03/09 06:45:24;;;;;;;4.85;1.98;;;;;;;11.34;85.91;96252.25;5278359;27;20407;-83
2023/03/09 06:47:56;;;;;;;7.62;2.22;;;;;;;11.25;86.54;96269.22;5278984;27;20054;-83
2023/03/09 06:50:26;;;;;;;6.03;1.92;;;;;;;11.48;85.82;96279.63;5279771;27;20045;-83
2023/03/09 06:52:53;;;;;;;8.32;1.85;;;;;;;11.44;86.22;96294.53;5279605;27;20058;-83
2023/03/09 06:55:20;;;;;;;6.70;2.00;;;;;;;11.58;85.48;96296.91;5279825;27;20060;-83
2023/03/09 06:57:48;;;;;;;5.78;1.90;;;;;;;11.62;85.65;96315.59;5281759;27;20053;-83
2023/03/09 07:00:15;;;;;;;8.02;2.35;;;;;;;11.57;86.76;96334.00;5282801;27;20568;-84
2023/03/09 07:02:42;;;;;;;6.93;1.95;;;;;;;11.45;87.15;96337.47;5280121;27;20124;-82
2023/03/09 07:05:09;;;;;;;5.82;1.90;;;;;;;11.50;86.70;96345.72;5278019;27;20156;-82
2023/03/09 07:07:36;;;;;;;5.32;1.62;;;;;;;11.70;85.46;96339.09;5259437;27;20062;-79
2023/03/09 07:10:05;;;;;;;4.03;1.70;;;;;;;11.80;84.38;96353.03;5279308;27;20050;-78
2023/03/09 07:12:32;;;;;;;4.37;1.50;;;;;;;12.03;83.17;96355.63;5280292;27;20454;-78
2023/03/09 07:14:59;;;;;;;3.62;1.50;;;;;;;12.07;82.81;96360.44;5280198;27;20058;-78
2023/03/09 07:17:26;;;;;;;4.30;1.80;;;;;;;11.99;82.89;96364.53;5280100;27;20053;-80
2023/03/09 07:19:53;;;;;;;5.95;1.62;;;;;;;12.24;82.02;96369.53;5280401;27;20060;-81
2023/03/09 07:22:20;;;;;;;5.05;1.50;;;;;;;12.29;81.84;96375.16;5279631;27;20065;-80
2023/03/09 07:24:47;;;;;;;6.15;1.70;;;;;;;12.24;82.08;96374.69;5280287;27;20056;-80
2023/03/09 07:27:14;;;;;;;5.53;1.80;;;;;;;12.16;82.44;96380.44;5279902;27;20065;-79
2023/03/09 07:29:41;;;;;;;5.93;1.62;;;;;;;12.23;81.61;96378.22;5279945;27;20431;-79
2023/03/09 07:32:08;;;;;;;4.18;1.83;;;;;;;12.41;81.49;96381.16;5280427;27;20058;-78
2023/03/09 07:34:36;;;;;;;3.80;1.58;;;;;;;12.57;81.33;96381.63;5280292;27;20075;-78
2023/03/09 07:37:03;;;;;;;4.22;1.75;;;;;;;12.47;81.69;96377.28;5279953;27;20057;-79
2023/03/09 07:39:30;;;;;;;3.67;1.62;;;;;;;12.51;81.77;96374.34;5280293;27;20091;-78
2023/03/09 07:41:57;;;;;;;5.95;1.90;;;;;;;12.40;83.37;96377.75;5280370;27;20062;-78
2023/03/09 07:44:24;;;;;;;5.65;1.50;;;;;;;12.31;84.78;96387.97;5279904;27;20099;-80
2023/03/09 07:46:51;;;;;;;5.85;2.00;;;;;;;12.16;85.89;96374.44;5280490;27;20364;-80
2023/03/09 07:49:18;;;;;;;3.22;1.50;;;;;;;12.33;86.91;96392.06;5278923;27;20056;-81
2023/03/09 07:51:45;;;;;;;4.93;1.65;;;;;;;12.34;87.72;96396.34;5280676;27;20070;-81
2023/03/09 07:54:12;;;;;;;5.57;1.92;;;;;;;12.49;88.15;96404.69;5280842;27;20103;-80
2023/03/09 07:56:39;;;;;;;6.32;1.83;;;;;;;12.42;90.46;96408.66;5260963;27;20070;-80
2023/03/09 07:59:07;;;;;;;6.03;1.70;;;;;;;12.82;89.91;96405.63;5280133;27;20060;-81
2023/03/09 08:01:33;;;;;;;6.22;1.73;;;;;;;12.95;88.61;96403.72;5261361;27;20380;-81
2023/03/09 08:04:00;;;;;;;5.32;1.80;;;;;;;13.20;86.99;96403.47;5280837;27;20068;-80
2023/03/09 08:06:28;;;;;;;5.20;1.80;;;;;;;13.25;87.78;96400.50;5280466;27;20111;-79
2023/03/09 08:08:54;;;;;;;4.32;1.80;;;;;;;13.32;87.56;96397.31;5280254;27;20076;-79
2023/03/09 08:11:28;;;;;;;5.32;1.80;;;;;;;13.13;87.59;96404.03;5280486;27;20360;-80
2023/03/09 08:13:54;;;;;;;4.45;1.85;;;;;;;12.88;87.83;96402.56;5280389;27;20114;-80
2023/03/09 08:16:21;;;;;;;7.00;1.95;;;;;;;12.80;89.91;96412.69;5280438;27;20053;-80
2023/03/09 08:18:49;;;;;;;5.35;1.75;;;;;;;12.61;92.38;96411.50;5280181;27;20079;-79
2023/03/09 08:21:23;;;;;;;5.80;2.08;;;;;;;12.09;95.68;96406.88;5280737;27;20066;-79
2023/03/09 08:23:50;;;;;;;6.65;1.90;;;;;;;12.15;95.46;96403.84;5261399;27;20061;-81
2023/03/09 08:26:22;;;;;;;6.10;1.75;;;;;;;11.98;97.33;96388.75;5280304;27;20049;-81
2023/03/09 08:28:52;;;;;;;4.93;1.70;;;;;;;12.17;94.80;96386.44;5281170;27;20053;-81
2023/03/09 08:31:19;;;;;;;5.85;1.98;;;;;;;12.00;95.77;96373.94;5282401;27;20058;-84
2023/03/09 08:33:46;;;;;;;6.12;1.75;;;;;;;11.77;98.26;96373.87;5282670;27;20053;-81
2023/03/09 08:36:18;;;;;;;3.72;1.73;;;;;;;12.07;98.44;96375.97;5282458;27;20046;-82
2023/03/09 08:38:46;;;;;;;5.47;1.60;;;;;;;12.87;93.07;96370.69;5278771;27;20324;-81
2023/03/09 08:41:13;;;;;;;3.85;1.40;;;;;;;12.97;90.74;96368.16;5280450;27;20408;-81
2023/03/09 08:43:40;;;;;;;3.15;1.52;;;;;;;13.01;89.75;96361.81;5279446;27;20065;-81
2023/03/09 08:46:07;;;;;;;5.55;1.80;;;;;;;13.16;90.15;96365.75;5279631;27;20074;-83
2023/03/09 08:48:35;;;;;;;7.45;2.03;;;;;;;13.53;87.07;96370.63;5281512;27;20053;-82
2023/03/09 08:51:05;;;;;;;4.40;1.80;;;;;;;13.59;85.29;96381.28;5288631;27;20071;-82
2023/03/09 08:53:33;;;;;;;4.57;1.70;;;;;;;13.84;86.50;96361.16;5283926;27;20103;-82
2023/03/09 08:56:09;;;;;;;5.80;1.75;;;;;;;13.82;85.31;96355.25;5281494;27;20022;-81
2023/03/09 08:58:36;;;;;;;3.58;1.52;;;;;;;14.18;83.76;96359.19;5281092;27;20046;-83
2023/03/09 09:01:05;;;;;;;4.53;1.65;;;;;;;14.44;82.38;96365.59;5280301;27;20119;-82
2023/03/09 09:03:32;;;;;;;4.78;2.03;;;;;;;14.49;81.42;96367.00;5281551;27;20477;-81
2023/03/09 09:06:05;;;;;;;4.40;1.70;;;;;;;14.64;81.21;96358.72;5280029;27;20115;-81
2023/03/09 09:08:31;;;;;;;7.18;1.90;;;;;;;14.99;78.63;96373.03;5279474;27;20050;-81
2023/03/09 09:10:59;;;;;;;4.00;1.48;;;;;;;15.11;77.42;96361.59;5280273;27;20062;-82
2023/03/09 09:13:26;;;;;;;5.03;1.80;;;;;;;15.03;78.37;96375.22;5282475;27;20099;-83
2023/03/09 09:15:54;;;;;;;5.05;1.70;;;;;;;15.55;75.07;96386.25;5280196;27;20053;-82
2023/03/09 09:18:22;;;;;;;2.58;1.48;;;;;;;15.51;74.14;96392.66;5279743;27;20041;-82
2023/03/09 09:20:58;;;;;;;5.57;1.83;;;;;;;15.27;75.81;96384.44;5279364;27;21007;-82
2023/03/09 09:23:24;;;;;;;3.60;1.50;;;;;;;15.68;73.78;96399.00;5280076;27;20333;-81
2023/03/09 09:25:55;;;;;;;3.53;1.70;;;;;;;15.45;73.96;96389.78;5278590;27;20115;-82
2023/03/09 09:28:23;;;;;;;4.97;1.67;;;;;;;15.74;73.48;96379.44;5260264;27;20464;-81
2023/03/09 09:30:58;;;;;;;3.25;1.80;;;;;;;15.74;71.93;96388.06;5296887;27;20096;-81
2023/03/09 09:33:29;;;;;;;4.68;1.90;;;;;;;15.60;73.58;96378.88;5279737;27;20122;-81
2023/03/09 09:35:59;;;;;;;7.28;2.08;;;;;;;15.47;73.53;96377.47;5260274;27;20080;-81
2023/03/09 09:38:27;;;;;;;5.10;1.60;;;;;;;16.14;71.94;96384.41;5279573;27;20101;-81
2023/03/09 09:40:55;;;;;;;5.28;1.60;;;;;;;16.04;70.59;96392.25;5279953;27;20116;-81
2023/03/09 09:43:23;;;;;;;3.85;1.80;;;;;;;15.87;71.75;96396.37;5260393;27;20134;-83
2023/03/09 09:45:52;;;;;;;4.25;1.58;;;;;;;16.09;70.64;96392.66;5278596;27;20075;-81
2023/03/09 09:48:19;;;;;;;6.60;1.87;;;;;;;16.41;68.55;96394.09;5280059;27;20045;-82
2023/03/09 09:51:29;;;;;;;5.28;1.70;;;;;;;16.41;67.27;96386.28;5279100;27;20111;-82
2023/03/09 09:54:24;;;;;;;4.45;1.70;;;;;;;16.24;68.31;96405.22;5279887;27;20459;-83
2023/03/09 09:57:03;;;;;;;5.03;1.58;;;;;;;16.56;67.01;96415.28;5279603;27;20536;-82
2023/03/09 09:59:37;;;;;;;4.93;1.55;;;;;;;16.69;65.86;96427.06;5280029;27;20095;-81
2023/03/09 10:02:10;;;;;;;4.30;1.80;;;;;;;16.71;65.06;96424.31;5279835;27;20432;-83
2023/03/09 10:04:45;;;;;;;4.85;1.50;;;;;;;16.63;65.58;96424.16;5278118;27;20103;-83
2023/03/09 10:07:17;;;;;;;4.37;1.40;;;;;;;16.77;64.54;96419.34;5278470;27;20072;-83
2023/03/09 10:10:00;;;;;;;5.10;1.73;;;;;;;16.26;64.92;96417.13;5279608;27;20045;-83
2023/03/09 10:12:28;;;;;;;4.45;1.70;;;;;;;16.10;66.01;96409.91;5279861;27;20058;-83
2023/03/09 10:15:00;;;;;;;6.70;2.20;;;;;;;16.55;64.59;96414.44;5279778;27;20077;-83
2023/03/09 10:17:43;;;;;;;3.33;1.52;;;;;;;16.76;63.19;96401.25;5279374;27;20057;-83
2023/03/09 10:20:19;;;;;;;3.92;1.40;;;;;;;16.93;63.90;96399.69;5278274;27;20080;-83
2023/03/09 10:22:49;;;;;;;4.35;1.73;;;;;;;16.91;62.27;96399.84;5279394;27;20069;-83
2023/03/09 10:25:20;;;;;;;4.75;1.65;;;;;;;17.39;62.73;96410.94;5260191;27;20089;-82
2023/03/09 10:27:51;;;;;;;4.87;1.50;;;;;;;17.63;60.40;96401.53;5279845;27;20369;-82
2023/03/09 10:30:41;;;;;;;4.65;1.45;;;;;;;17.47;59.56;96408.41;5279662;27;20046;-83
2023/03/09 10:33:08;;;;;;;5.03;1.52;;;;;;;17.44;60.17;96412.16;5278663;27;20107;-83
2023/03/09 10:35:38;;;;;;;4.25;1.67;;;;;;;17.11;61.39;96410.94;5280160;27;20062;-83
2023/03/09 10:38:07;;;;;;;4.12;1.50;;;;;;;16.95;61.77;96405.56;5279298;27;20052;-83
2023/03/09 10:40:43;;;;;;;2.97;1.40;;;;;;;17.02;61.00;96410.06;5278425;27;20050;-83
2023/03/09 10:43:17;;;;;;;2.22;1.30;;;;;;;17.15;60.99;96421.91;5279593;27;20057;-83
2023/03/09 10:45:44;;;;;;;4.00;1.48;;;;;;;16.89;59.68;96408.72;5278724;27;20065;-83
2023/03/09 10:48:20;;;;;;;3.58;1.40;;;;;;;17.01;60.39;96391.94;5280185;27;20099;-84
2023/03/09 10:51:01;;;;;;;2.97;1.42;;;;;;;17.02;61.48;96423.09;5280600;27;20100;-83
2023/03/09 10:53:34;;;;;;;4.82;1.73;;;;;;;16.77;61.48;96429.75;5279137;27;20065;-83
2023/03/09 10:56:05;;;;;;;4.25;1.40;;;;;;;16.95;60.85;96429.00;5280652;27;20065;-83
2023/03/09 10:58:33;;;;;;;2.30;1.40;;;;;;;16.92;60.36;96434.50;5260957;27;20053;-82
2023/03/09 11:01:02;;;;;;;2.33;1.50;;;;;;;16.65;59.96;96445.66;5279058;27;20118;-82
2023/03/09 11:03:35;;;;;;;2.50;1.02;;;;;;;16.69;59.47;96444.44;5280490;27;20680;-82
2023/03/09 11:06:24;;;;;;;4.55;1.50;;;;;;;16.63;59.35;96438.00;5280406;27;20061;-83
2023/03/09 11:09:35;;;;;;;2.90;1.08;;;;;;;16.56;58.96;96442.13;5280216;27;20068;-84
2023/03/09 11:12:21;;;;;;;2.55;1.15;;;;;;;16.49;60.71;96448.87;5297168;27;20060;-83
2023/03/09 11:14:51;;;;;;;4.22;1.10;;;;;;;16.54;61.40;96462.28;5280275;27;20119;-84
2023/03/09 11:17:37;;;;;;;3.85;1.30;;;;;;;16.58;61.02;96466.25;5278910;27;20066;-82
2023/03/09 11:20:23;;;;;;;3.83;1.27;;;;;;;16.73;59.70;96477.91;5280024;27;20057;-84
2023/03/09 11:23:12;;;;;;;2.25;1.00;;;;;;;16.78;59.55;96473.06;5280166;27;20058;-83
2023/03/09 11:25:43;;;;;;;1.87;1.10;;;;;;;16.83;58.66;96488.28;5280379;27;20107;-83
2023/03/09 11:28:26;;;;;;;3.53;1.23;;;;;;;17.19;58.62;96485.81;5279909;27;20061;-81
2023/03/09 11:30:55;;;;;;;2.97;1.05;;;;;;;17.49;56.53;96484.69;5260900;27;20415;-82
2023/03/09 11:33:24;;;;;;;2.40;0.90;;;;;;;17.34;55.03;96466.13;5280354;27;20077;-82
2023/03/09 11:35:53;;;;;;;2.08;0.95;;;;;;;17.18;55.82;96466.75;5279979;27;20053;-82
2023/03/09 11:38:20;;;;;;;2.08;1.00;;;;;;;17.22;53.41;96496.75;5280049;27;20124;-82
2023/03/09 11:40:50;;;;;;;3.15;1.20;;;;;;;17.05;54.56;96494.94;5280263;27;20049;-82
2023/03/09 11:43:21;;;;;;;1.87;0.93;;;;;;;17.08;54.44;96501.63;5280534;27;20041;-81
2023/03/09 11:45:49;;;;;;;1.55;1.00;;;;;;;17.12;53.41;96498.62;5279052;27;20078;-82